createdAt,value
2024-05-09T00:00:36.292Z,4.72
2024-05-09T00:03:10.342Z,4.47
2024-05-09T00:05:38.742Z,5.40
2024-05-09T00:08:06.713Z,5.60
2024-05-09T00:10:37.348Z,5.10
2024-05-09T00:13:10.252Z,4.95
2024-05-09T00:15:37.631Z,5.50
2024-05-09T00:18:05.954Z,4.72
2024-05-09T00:20:38.398Z,5.25
2024-05-09T00:23:12.089Z,5.43
2024-05-09T00:25:39.687Z,4.38
2024-05-09T00:28:06.679Z,5.13
2024-05-09T00:30:36.018Z,5.88
2024-05-09T00:33:05.773Z,4.72
2024-05-09T00:35:33.569Z,4.97
2024-05-09T00:38:01.308Z,4.90
2024-05-09T00:40:39.161Z,5.22
2024-05-09T00:43:08.429Z,4.88
2024-05-09T00:45:35.821Z,4.78
2024-05-09T00:48:06.728Z,4.60
2024-05-09T00:50:37.453Z,5.40
2024-05-09T00:53:10.203Z,5.28
2024-05-09T00:55:37.780Z,4.75
2024-05-09T00:58:05.374Z,5.70
2024-05-09T01:00:38.750Z,5.10
2024-05-09T01:03:09.078Z,5.50
2024-05-09T01:05:39.183Z,5.45
2024-05-09T01:08:06.768Z,5.43
2024-05-09T01:10:35.257Z,5.88
2024-05-09T01:13:07.158Z,5.73
2024-05-09T01:15:34.615Z,5.93
2024-05-09T01:18:05.072Z,5.53
2024-05-09T01:20:40.767Z,4.90
2024-05-09T01:23:10.557Z,6.15
2024-05-09T01:25:37.675Z,5.97
2024-05-09T01:28:04.801Z,5.47
2024-05-09T01:30:35.156Z,5.50
2024-05-09T01:33:08.890Z,5.82
2024-05-09T01:35:37.533Z,5.30
2024-05-09T01:38:04.710Z,5.40
2024-05-09T01:40:38.434Z,6.05
2024-05-09T01:43:08.894Z,5.75
2024-05-09T01:45:36.508Z,5.40
2024-05-09T01:48:03.731Z,6.40
2024-05-09T01:50:38.162Z,5.50
2024-05-09T01:53:09.550Z,5.75
2024-05-09T01:55:36.354Z,5.95
2024-05-09T01:58:03.144Z,5.68
2024-05-09T02:00:38.400Z,5.82
2024-05-09T02:03:10.756Z,5.47
2024-05-09T02:05:39.198Z,5.68
2024-05-09T02:08:06.947Z,6.18
2024-05-09T02:10:33.862Z,5.60
2024-05-09T02:13:00.891Z,5.30
2024-05-09T02:15:27.848Z,5.90
2024-05-09T02:17:54.762Z,5.85
2024-05-09T02:20:30.683Z,5.68
2024-05-09T02:23:04.476Z,5.82
2024-05-09T02:25:32.203Z,6.10
2024-05-09T02:27:59.166Z,5.93
2024-05-09T02:30:35.733Z,5.93
2024-05-09T02:33:07.206Z,6.00
2024-05-09T02:35:34.220Z,5.50
2024-05-09T02:38:01.122Z,5.53
2024-05-09T02:40:36.063Z,5.47
2024-05-09T02:43:05.708Z,5.78
2024-05-09T02:45:32.616Z,5.63
2024-05-09T02:47:59.547Z,5.60
2024-05-09T02:50:34.151Z,4.82
2024-05-09T02:53:05.446Z,5.53
2024-05-09T02:55:32.553Z,5.47
2024-05-09T02:57:59.334Z,5.88
2024-05-09T03:00:34.688Z,5.05
2024-05-09T03:03:08.319Z,5.32
2024-05-09T03:05:36.222Z,4.83
2024-05-09T03:08:03.308Z,5.05
2024-05-09T03:10:35.571Z,5.18
2024-05-09T03:13:07.894Z,5.07
2024-05-09T03:15:34.619Z,5.68
2024-05-09T03:18:01.598Z,5.30
2024-05-09T03:20:33.956Z,5.85
2024-05-09T03:23:02.688Z,5.15
2024-05-09T03:25:30.266Z,6.07
2024-05-09T03:27:56.923Z,5.38
2024-05-09T03:30:38.442Z,5.50
2024-05-09T03:33:18.013Z,5.70
2024-05-09T03:35:46.917Z,6.03
2024-05-09T03:38:14.184Z,4.72
2024-05-09T03:40:48.892Z,5.07
2024-05-09T03:43:16.989Z,5.33
2024-05-09T03:45:44.267Z,5.15
2024-05-09T03:48:11.239Z,5.47
2024-05-09T03:50:38.293Z,5.53
2024-05-09T03:53:05.373Z,5.57
2024-05-09T03:55:33.573Z,5.40
2024-05-09T03:58:01.262Z,5.30
2024-05-09T04:00:37.090Z,5.43
2024-05-09T04:03:08.925Z,4.97
2024-05-09T04:05:41.375Z,5.18
2024-05-09T04:08:09.918Z,5.30
2024-05-09T04:10:51.143Z,5.13
2024-05-09T04:13:17.756Z,5.07
2024-05-09T04:15:46.377Z,4.88
2024-05-09T04:18:13.986Z,5.82
2024-05-09T04:20:54.257Z,5.20
2024-05-09T04:23:21.059Z,6.22
2024-05-09T04:25:51.627Z,5.07
2024-05-09T04:28:20.345Z,5.60
2024-05-09T04:30:49.727Z,5.93
2024-05-09T04:33:16.587Z,5.03
2024-05-09T04:35:47.071Z,5.53
2024-05-09T04:38:15.207Z,5.07
2024-05-09T04:40:44.429Z,5.20
2024-05-09T04:43:15.750Z,5.88
2024-05-09T04:45:45.849Z,5.10
2024-05-09T04:48:13.165Z,4.93
2024-05-09T04:50:40.603Z,5.53
2024-05-09T04:53:10.042Z,6.25
2024-05-09T04:55:40.433Z,4.78
2024-05-09T04:58:11.582Z,5.23
2024-05-09T05:00:41.332Z,5.07
2024-05-09T05:03:14.242Z,6.60
2024-05-09T05:05:45.311Z,6.35
2024-05-09T05:08:17.305Z,5.60
2024-05-09T05:10:47.432Z,5.57
2024-05-09T05:13:24.990Z,6.13
2024-05-09T05:16:00.508Z,6.38
2024-05-09T05:18:28.281Z,6.53
2024-05-09T05:20:56.498Z,6.60
2024-05-09T05:23:24.425Z,7.40
2024-05-09T05:25:55.427Z,7.38
2024-05-09T05:28:22.534Z,7.07
2024-05-09T05:30:51.415Z,7.40
2024-05-09T05:33:19.239Z,8.55
2024-05-09T05:35:48.950Z,7.97
2024-05-09T05:38:15.812Z,7.93
2024-05-09T05:40:47.397Z,8.98
2024-05-09T05:43:18.346Z,9.40
2024-05-09T05:45:45.740Z,9.52
2024-05-09T05:48:14.670Z,10.53
2024-05-09T05:50:44.447Z,10.45
2024-05-09T05:53:11.562Z,10.68
2024-05-09T05:55:43.779Z,11.60
2024-05-09T05:58:11.346Z,10.10
2024-05-09T06:00:40.757Z,11.20
2024-05-09T06:03:10.390Z,11.18
2024-05-09T06:05:41.050Z,11.48
2024-05-09T06:08:08.984Z,11.38
2024-05-09T06:10:43.564Z,11.45
2024-05-09T06:13:11.474Z,10.73
2024-05-09T06:15:39.981Z,10.77
2024-05-09T06:18:08.966Z,13.88
2024-05-09T06:20:40.381Z,13.20
2024-05-09T06:23:07.824Z,13.60
2024-05-09T06:25:44.864Z,13.30
2024-05-09T06:28:12.021Z,13.05
2024-05-09T06:30:44.005Z,13.40
2024-05-09T06:33:13.430Z,12.77
2024-05-09T06:35:44.911Z,13.02
2024-05-09T06:38:12.160Z,12.67
2024-05-09T06:40:42.202Z,12.40
2024-05-09T06:43:18.946Z,12.07
2024-05-09T06:45:58.570Z,11.88
2024-05-09T06:48:25.701Z,10.98
2024-05-09T06:50:55.319Z,11.37
2024-05-09T06:53:24.699Z,9.95
2024-05-09T06:55:55.268Z,10.23
2024-05-09T06:58:22.988Z,9.20
2024-05-09T07:00:50.121Z,9.10
2024-05-09T07:03:18.444Z,10.50
2024-05-09T07:05:49.751Z,10.05
2024-05-09T07:08:17.477Z,10.32
2024-05-09T07:10:46.579Z,9.50
2024-05-09T07:13:15.282Z,9.43
2024-05-09T07:15:45.264Z,9.23
2024-05-09T07:18:16.707Z,10.40
2024-05-09T07:20:45.596Z,8.95
2024-05-09T07:23:13.028Z,9.63
2024-05-09T07:25:42.102Z,9.43
2024-05-09T07:28:15.415Z,9.23
2024-05-09T07:30:45.080Z,9.23
2024-05-09T07:33:23.252Z,9.10
2024-05-09T07:35:52.838Z,7.93
2024-05-09T07:38:22.496Z,8.13
2024-05-09T07:40:51.563Z,8.90
2024-05-09T07:43:18.318Z,8.07
2024-05-09T07:45:53.182Z,9.20
2024-05-09T07:52:39.001Z,9.25
2024-05-09T07:53:50.618Z,8.97
2024-05-09T07:56:22.380Z,8.88
2024-05-09T07:58:52.846Z,9.18
2024-05-09T08:01:20.526Z,9.05
2024-05-09T08:03:48.160Z,7.15
2024-05-09T08:06:15.025Z,8.10
2024-05-09T08:08:41.787Z,7.93
2024-05-09T08:11:08.616Z,8.68
2024-05-09T08:13:35.286Z,8.48
2024-05-09T08:16:03.121Z,7.10
2024-05-09T08:18:30.047Z,7.73
2024-05-09T08:21:00.842Z,8.15
2024-05-09T08:23:28.808Z,6.95
2024-05-09T08:25:57.231Z,7.60
2024-05-09T08:28:24.906Z,6.00
2024-05-09T08:30:53.366Z,6.80
2024-05-09T08:33:20.250Z,5.82
2024-05-09T08:35:48.676Z,7.30
2024-05-09T08:38:15.357Z,7.22
2024-05-09T08:40:43.034Z,8.40
2024-05-09T08:43:11.960Z,8.00
2024-05-09T08:45:45.502Z,8.20
2024-05-09T08:48:14.979Z,7.95
2024-05-09T08:50:52.158Z,8.25
2024-05-09T08:53:19.794Z,8.13
2024-05-09T08:55:48.917Z,7.77
2024-05-09T08:58:19.251Z,7.18
2024-05-09T09:00:51.658Z,6.60
2024-05-09T09:03:26.755Z,7.00
2024-05-09T09:06:02.297Z,6.93
2024-05-09T09:08:30.479Z,6.77
2024-05-09T09:11:03.074Z,7.82
2024-05-09T09:13:31.011Z,7.18
2024-05-09T09:16:00.815Z,7.57
2024-05-09T09:18:30.331Z,7.10
2024-05-09T09:20:59.833Z,6.90
2024-05-09T09:23:30.618Z,7.53
2024-05-09T09:26:02.116Z,7.22
2024-05-09T09:28:29.592Z,7.20
2024-05-09T09:31:05.466Z,7.10
2024-05-09T09:33:32.663Z,8.37
2024-05-09T09:36:02.843Z,7.70
2024-05-09T09:38:31.679Z,7.90
2024-05-09T09:41:01.070Z,6.93
2024-05-09T09:43:28.335Z,7.90
2024-05-09T09:46:02.474Z,7.17
2024-05-09T09:48:31.442Z,7.30
2024-05-09T09:50:58.414Z,6.78
2024-05-09T09:53:26.126Z,7.13
2024-05-09T09:56:04.045Z,6.60
2024-05-09T09:58:32.913Z,7.00
2024-05-09T10:01:00.860Z,6.55
2024-05-09T10:03:29.805Z,7.10
2024-05-09T10:05:59.287Z,6.60
2024-05-09T10:08:26.768Z,6.50
2024-05-09T10:10:59.419Z,6.30
2024-05-09T10:13:33.877Z,6.65
2024-05-09T10:16:07.830Z,6.00
2024-05-09T10:18:38.736Z,6.10
2024-05-09T10:21:19.722Z,6.00
2024-05-09T10:24:00.517Z,5.60
2024-05-09T10:26:34.866Z,5.78
2024-05-09T10:29:13.754Z,4.95
2024-05-09T10:31:45.691Z,5.00
2024-05-09T10:34:23.429Z,5.20
2024-05-09T10:36:56.749Z,5.23
2024-05-09T10:39:25.215Z,5.40
2024-05-09T10:41:51.873Z,5.53
2024-05-09T10:44:18.709Z,5.72
2024-05-09T10:46:46.322Z,5.88
2024-05-09T10:49:14.738Z,5.70
2024-05-09T10:51:45.323Z,4.80
2024-05-09T10:54:11.985Z,5.05
2024-05-09T10:56:38.586Z,5.65
2024-05-09T10:59:05.643Z,5.38
2024-05-09T11:01:32.390Z,5.50
2024-05-09T11:03:59.266Z,5.63
2024-05-09T11:06:25.996Z,5.25
2024-05-09T11:08:52.898Z,5.63
2024-05-09T11:11:19.727Z,5.80
2024-05-09T11:13:46.382Z,5.50
2024-05-09T11:16:21.194Z,6.30
2024-05-09T11:18:58.943Z,5.57
2024-05-09T11:21:26.893Z,5.85
2024-05-09T11:23:53.724Z,5.40
2024-05-09T11:26:22.098Z,6.67
2024-05-09T11:28:50.548Z,6.30
2024-05-09T11:31:17.757Z,6.90
2024-05-09T11:33:47.753Z,6.53
2024-05-09T11:36:15.076Z,6.43
2024-05-09T11:38:42.417Z,6.03
2024-05-09T11:41:09.101Z,6.30
2024-05-09T11:43:35.743Z,7.05
2024-05-09T11:46:03.558Z,6.82
2024-05-09T11:48:31.174Z,6.75
2024-05-09T11:50:58.863Z,6.53
2024-05-09T11:53:26.250Z,7.10
2024-05-09T11:55:53.945Z,7.50
2024-05-09T11:58:22.906Z,7.40
2024-05-09T12:00:52.247Z,7.55
2024-05-09T12:03:19.549Z,7.40
2024-05-09T12:05:46.766Z,8.00
2024-05-09T12:08:14.210Z,6.88
2024-05-09T12:13:22.328Z,7.75
2024-05-09T12:15:52.271Z,8.53
2024-05-09T12:18:19.739Z,8.00
2024-05-09T12:20:47.579Z,8.07
2024-05-09T12:23:17.310Z,8.07
2024-05-09T12:25:44.807Z,6.85
2024-05-09T12:28:11.534Z,7.13
2024-05-09T12:30:42.244Z,7.88
2024-05-09T12:33:13.839Z,7.80
2024-05-09T12:35:47.441Z,7.82
2024-05-09T12:38:19.229Z,8.63
2024-05-09T12:40:56.513Z,8.63
2024-05-09T12:43:23.542Z,8.68
2024-05-09T12:45:53.559Z,8.15
2024-05-09T12:48:24.182Z,7.38
2024-05-09T12:50:53.246Z,8.70
2024-05-09T12:53:20.763Z,7.50
2024-05-09T12:55:56.699Z,7.90
2024-05-09T12:58:27.170Z,8.40
2024-05-09T13:00:56.549Z,7.65
2024-05-09T13:03:23.388Z,7.80
2024-05-09T13:05:51.801Z,7.67
2024-05-09T13:08:19.593Z,8.07
2024-05-09T13:10:49.471Z,7.78
2024-05-09T13:13:16.910Z,9.25
2024-05-09T13:15:45.854Z,8.00
2024-05-09T13:18:14.366Z,8.90
2024-05-09T13:20:45.563Z,8.50
2024-05-09T13:23:12.914Z,7.93
2024-05-09T13:25:39.650Z,8.25
2024-05-09T13:28:07.586Z,8.45
2024-05-09T13:30:40.552Z,8.30
2024-05-09T13:33:10.646Z,8.05
2024-05-09T13:35:39.503Z,8.48
2024-05-09T13:38:07.075Z,8.77
2024-05-09T13:40:36.337Z,8.30
2024-05-09T13:43:04.996Z,7.77
2024-05-09T13:45:33.236Z,7.88
2024-05-09T13:48:01.080Z,8.52
2024-05-09T13:50:34.740Z,8.43
2024-05-09T13:53:08.722Z,8.10
2024-05-09T13:56:02.547Z,8.40
2024-05-09T13:58:29.290Z,7.65
2024-05-09T14:00:57.368Z,8.23
2024-05-09T14:03:25.472Z,7.97
2024-05-09T14:05:55.413Z,7.63
2024-05-09T14:08:23.036Z,8.47
2024-05-09T14:10:54.673Z,11.60
2024-05-09T14:13:21.552Z,8.52
2024-05-09T14:15:51.490Z,8.95
2024-05-09T14:18:19.056Z,7.80
2024-05-09T14:20:46.058Z,8.30
2024-05-09T14:23:12.655Z,8.43
2024-05-09T14:25:42.552Z,8.98
2024-05-09T14:28:10.703Z,10.05
2024-05-09T14:30:41.361Z,8.45
2024-05-09T14:33:09.253Z,8.50
2024-05-09T14:35:39.410Z,8.35
2024-05-09T14:38:08.920Z,8.27
2024-05-09T14:40:42.881Z,8.07
2024-05-09T14:43:12.861Z,8.93
2024-05-09T14:45:45.043Z,8.47
2024-05-09T14:48:15.574Z,8.85
2024-05-09T14:50:46.519Z,8.57
2024-05-09T14:53:13.881Z,9.05
2024-05-09T14:55:44.365Z,8.38
2024-05-09T14:58:12.198Z,8.03
2024-05-09T15:00:47.774Z,8.25
2024-05-09T15:03:18.408Z,8.63
2024-05-09T15:05:50.317Z,9.10
2024-05-09T15:08:18.626Z,9.07
2024-05-09T15:10:46.813Z,8.93
2024-05-09T15:13:16.406Z,9.85
2024-05-09T15:15:46.765Z,8.90
2024-05-09T15:18:14.915Z,9.63
2024-05-09T15:20:45.795Z,9.45
2024-05-09T15:23:13.415Z,9.27
2024-05-09T15:25:42.706Z,9.10
2024-05-09T15:28:09.673Z,9.02
2024-05-09T15:30:39.597Z,9.43
2024-05-09T15:33:07.966Z,10.80
2024-05-09T15:35:37.949Z,11.13
2024-05-09T15:38:05.072Z,11.48
2024-05-09T15:40:39.306Z,11.73
2024-05-09T15:43:09.348Z,12.02
2024-05-09T15:45:38.818Z,12.90
2024-05-09T15:48:08.616Z,11.70
2024-05-09T15:50:40.145Z,12.70
2024-05-09T15:53:10.307Z,13.35
2024-05-09T15:55:38.451Z,12.45
2024-05-09T15:58:06.168Z,12.82
2024-05-09T16:00:39.136Z,12.30
2024-05-09T16:03:14.619Z,11.82
2024-05-09T16:05:46.746Z,11.13
2024-05-09T16:08:15.256Z,12.75
2024-05-09T16:10:45.855Z,13.50
2024-05-09T16:13:13.571Z,12.90
2024-05-09T16:15:41.216Z,14.05
2024-05-09T16:18:08.233Z,13.50
2024-05-09T16:20:40.745Z,14.38
2024-05-09T16:23:09.574Z,15.38
2024-05-09T16:25:40.132Z,13.30
2024-05-09T16:28:10.016Z,14.20
2024-05-09T16:30:43.571Z,12.75
2024-05-09T16:33:13.337Z,12.55
2024-05-09T16:35:44.651Z,13.88
2024-05-09T16:38:11.364Z,13.77
2024-05-09T16:40:41.420Z,13.93
2024-05-09T16:43:10.086Z,14.20
2024-05-09T16:45:44.849Z,13.75
2024-05-09T16:48:13.034Z,14.13
2024-05-09T16:50:40.271Z,13.80
2024-05-09T16:53:07.459Z,13.27
2024-05-09T16:55:36.936Z,14.50
2024-05-09T16:58:07.073Z,14.68
2024-05-09T17:00:40.803Z,15.82
2024-05-09T17:03:12.643Z,14.80
2024-05-09T17:05:40.636Z,14.65
2024-05-09T17:08:08.601Z,14.38
2024-05-09T17:10:37.064Z,18.85
2024-05-09T17:13:06.475Z,15.80
2024-05-09T17:15:35.180Z,14.73
2024-05-09T17:18:02.906Z,14.75
2024-05-09T17:20:35.374Z,13.23
2024-05-09T17:23:06.046Z,13.40
2024-05-09T17:25:34.283Z,13.40
2024-05-09T17:28:06.820Z,13.97
2024-05-09T17:30:38.256Z,14.00
2024-05-09T17:33:08.972Z,12.90
2024-05-09T17:35:38.162Z,12.93
2024-05-09T17:38:06.322Z,14.48
2024-05-09T17:40:37.454Z,12.30
2024-05-09T17:43:08.471Z,13.90
2024-05-09T17:45:40.547Z,12.23
2024-05-09T17:48:10.377Z,13.07
2024-05-09T17:50:38.751Z,12.75
2024-05-09T17:53:06.553Z,13.57
2024-05-09T17:55:35.238Z,12.68
2024-05-09T17:58:04.834Z,14.40
2024-05-09T18:00:40.738Z,13.48
2024-05-09T18:03:13.749Z,13.63
2024-05-09T18:05:45.031Z,14.83
2024-05-09T18:08:13.942Z,14.90
2024-05-09T18:10:42.975Z,14.00
2024-05-09T18:13:11.426Z,14.00
2024-05-09T18:15:39.648Z,14.30
2024-05-09T18:18:07.674Z,14.20
2024-05-09T18:20:42.142Z,14.48
2024-05-09T18:23:13.374Z,13.80
2024-05-09T18:25:46.293Z,14.02
2024-05-09T18:28:13.750Z,13.63
2024-05-09T18:30:41.675Z,13.73
2024-05-09T18:33:10.178Z,13.35
2024-05-09T18:35:38.357Z,14.20
2024-05-09T18:38:05.465Z,14.77
2024-05-09T18:40:36.640Z,14.13
2024-05-09T18:43:08.041Z,13.73
2024-05-09T18:45:38.931Z,14.30
2024-05-09T18:48:07.518Z,14.00
2024-05-09T18:50:39.977Z,13.00
2024-05-09T18:53:12.709Z,14.10
2024-05-09T18:55:42.450Z,13.97
2024-05-09T18:58:09.845Z,15.05
2024-05-09T19:00:40.428Z,16.77
2024-05-09T19:03:12.271Z,14.13
2024-05-09T19:05:41.692Z,13.95
2024-05-09T19:08:09.624Z,14.47
2024-05-09T19:10:39.874Z,13.85
2024-05-09T19:13:11.807Z,14.75
2024-05-09T19:15:44.079Z,13.15
2024-05-09T19:18:12.886Z,14.10
2024-05-09T19:20:40.362Z,14.03
2024-05-09T19:23:07.555Z,14.10
2024-05-09T19:25:37.837Z,15.85
2024-05-09T19:28:05.613Z,14.68
2024-05-09T19:30:39.405Z,15.07
2024-05-09T19:33:10.181Z,15.10
2024-05-09T19:35:37.857Z,15.00
2024-05-09T19:38:05.227Z,16.52
2024-05-09T19:40:33.926Z,15.77
2024-05-09T19:43:02.858Z,15.00
2024-05-09T19:45:30.284Z,15.23
2024-05-09T19:47:57.272Z,14.77
2024-05-09T19:50:32.378Z,17.80
2024-05-09T19:53:06.903Z,16.55
2024-05-09T19:55:33.884Z,15.93
2024-05-09T19:58:04.885Z,15.93
2024-05-09T20:00:39.015Z,16.27
2024-05-09T20:03:08.503Z,15.80
2024-05-09T20:05:36.294Z,15.18
2024-05-09T20:08:03.836Z,16.02
2024-05-09T20:10:33.246Z,14.97
2024-05-09T20:13:02.628Z,17.33
2024-05-09T20:15:29.642Z,16.77
2024-05-09T20:17:56.439Z,17.98
2024-05-09T20:20:33.402Z,17.33
2024-05-09T20:23:06.195Z,17.37
2024-05-09T20:25:33.221Z,17.10
2024-05-09T20:27:59.995Z,18.40
2024-05-09T20:30:32.001Z,17.45
2024-05-09T20:33:02.830Z,18.33
2024-05-09T20:35:31.872Z,17.37
2024-05-09T20:37:58.927Z,18.55
2024-05-09T20:40:31.655Z,18.15
2024-05-09T20:43:02.173Z,18.08
2024-05-09T20:45:28.884Z,18.83
2024-05-09T20:47:56.032Z,18.57
2024-05-09T20:50:29.274Z,18.15
2024-05-09T20:53:05.193Z,18.23
2024-05-09T20:55:31.796Z,18.65
2024-05-09T20:57:58.637Z,18.50
2024-05-09T21:00:34.613Z,19.50
2024-05-09T21:03:07.111Z,19.17
2024-05-09T21:05:34.772Z,19.55
2024-05-09T21:08:01.899Z,19.58
2024-05-09T21:10:32.735Z,19.40
2024-05-09T21:13:00.784Z,19.13
2024-05-09T21:15:27.460Z,19.13
2024-05-09T21:17:54.104Z,20.15
2024-05-09T21:20:28.103Z,21.08
2024-05-09T21:22:57.739Z,19.33
2024-05-09T21:25:24.487Z,20.43
2024-05-09T21:27:51.391Z,20.08
2024-05-09T21:30:27.308Z,21.48
2024-05-09T21:32:59.987Z,19.48
2024-05-09T21:35:26.780Z,20.40
2024-05-09T21:37:53.439Z,19.17
2024-05-09T21:40:27.308Z,20.55
2024-05-09T21:43:00.760Z,19.73
2024-05-09T21:45:33.252Z,20.23
2024-05-09T21:48:00.296Z,19.73
2024-05-09T21:50:36.059Z,20.40
2024-05-09T21:53:07.021Z,19.17
2024-05-09T21:55:34.123Z,20.67
2024-05-09T21:58:02.913Z,21.40
2024-05-09T22:00:36.059Z,20.88
2024-05-09T22:03:09.715Z,21.23
2024-05-09T22:05:38.244Z,19.17
2024-05-09T22:08:05.603Z,20.92
2024-05-09T22:10:35.034Z,20.40
2024-05-09T22:13:05.090Z,20.90
2024-05-09T22:15:36.257Z,20.00
2024-05-09T22:18:04.526Z,20.80
2024-05-09T22:20:37.001Z,21.55
2024-05-09T22:23:05.846Z,20.67
2024-05-09T22:25:32.994Z,22.15
2024-05-09T22:28:01.158Z,20.70
2024-05-09T22:30:35.620Z,21.40
2024-05-09T22:33:06.594Z,21.92
2024-05-09T22:35:33.543Z,20.50
2024-05-09T22:38:00.266Z,22.30
2024-05-09T22:40:38.379Z,22.10
2024-05-09T22:43:13.592Z,20.85
2024-05-09T22:45:41.280Z,22.40
2024-05-09T22:48:08.886Z,21.45
2024-05-09T22:50:35.794Z,21.02
2024-05-09T22:53:02.534Z,20.13
2024-05-09T22:55:29.263Z,22.65
2024-05-09T22:57:56.197Z,22.98
2024-05-09T23:00:30.976Z,22.08
2024-05-09T23:03:00.739Z,20.73
2024-05-09T23:05:27.805Z,20.60
2024-05-09T23:07:54.548Z,20.92
2024-05-09T23:10:28.163Z,20.10
2024-05-09T23:13:01.435Z,19.90
2024-05-09T23:15:28.388Z,21.20
2024-05-09T23:17:55.451Z,19.40
2024-05-09T23:20:32.739Z,20.15
2024-05-09T23:23:04.266Z,20.88
2024-05-09T23:25:30.902Z,20.55
2024-05-09T23:27:57.562Z,21.92
2024-05-09T23:30:33.568Z,21.23
2024-05-09T23:33:05.587Z,20.65
2024-05-09T23:35:32.430Z,21.63
2024-05-09T23:37:59.861Z,21.42
2024-05-09T23:40:37.120Z,23.05
2024-05-09T23:43:07.702Z,20.87
2024-05-09T23:45:34.906Z,21.23
2024-05-09T23:48:01.905Z,21.27
2024-05-09T23:50:35.789Z,21.48
2024-05-09T23:53:05.809Z,21.20
2024-05-09T23:55:32.973Z,20.93
2024-05-09T23:58:00.135Z,19.92
